createdAt,value
2022-08-07T00:02:36.921Z,100987.53
2022-08-07T00:05:05.834Z,100988.28
2022-08-07T00:07:40.216Z,100990.56
2022-08-07T00:10:26.661Z,100996.44
2022-08-07T00:13:00.968Z,100997.28
2022-08-07T00:15:35.993Z,100999.75
2022-08-07T00:18:06.785Z,100989.34
2022-08-07T00:20:39.184Z,100994.50
2022-08-07T00:23:08.163Z,100994.91
2022-08-07T00:25:41.411Z,100997.66
2022-08-07T00:28:10.755Z,101002.06
2022-08-07T00:30:39.024Z,101004.44
2022-08-07T00:33:09.443Z,101000.72
2022-08-07T00:35:38.526Z,100993.56
2022-08-07T00:38:06.464Z,100994.47
2022-08-07T00:40:36.300Z,100993.88
2022-08-07T00:44:01.467Z,100992.41
2022-08-07T00:46:02.013Z,100990.84
2022-08-07T00:48:31.981Z,100994.59
2022-08-07T00:51:01.563Z,100990.19
2022-08-07T00:53:38.517Z,100996.72
2022-08-07T00:56:15.986Z,100986.59
2022-08-07T00:58:47.434Z,100989.16
2022-08-07T01:01:20.712Z,101000.00
2022-08-07T01:03:55.675Z,100998.78
2022-08-07T01:06:29.308Z,100988.13
2022-08-07T01:09:01.232Z,100982.66
2022-08-07T01:12:08.933Z,100969.19
2022-08-07T01:14:28.852Z,100954.22
2022-08-07T01:16:59.409Z,100961.47
2022-08-07T01:19:32.076Z,100958.09
2022-08-07T01:22:03.424Z,100954.81
2022-08-07T01:24:42.329Z,100934.88
2022-08-07T01:27:32.108Z,100928.50
2022-08-07T01:30:00.615Z,100919.75
2022-08-07T01:32:29.629Z,100922.34
2022-08-07T01:35:02.089Z,100910.06
2022-08-07T01:37:33.806Z,100914.31
2022-08-07T01:40:06.270Z,100903.22
2022-08-07T01:42:57.170Z,100888.28
2022-08-07T01:45:36.374Z,100878.94
2022-08-07T01:48:20.198Z,100869.34
2022-08-07T01:51:24.043Z,100859.09
2022-08-07T01:54:11.582Z,100846.00
2022-08-07T01:56:53.214Z,100839.41
2022-08-07T01:59:31.131Z,100841.25
2022-08-07T02:02:10.711Z,100850.22
2022-08-07T02:04:56.030Z,100857.00
2022-08-07T02:07:44.942Z,100859.59
2022-08-07T02:10:27.299Z,100849.53
2022-08-07T02:13:00.348Z,100840.41
2022-08-07T02:15:39.370Z,100842.81
2022-08-07T02:18:13.879Z,100847.34
2022-08-07T02:20:48.537Z,100849.00
2022-08-07T02:23:24.140Z,100866.56
2022-08-07T02:26:31.942Z,100887.56
2022-08-07T02:28:44.809Z,100902.47
2022-08-07T02:31:28.121Z,100915.50
2022-08-07T02:34:02.841Z,100920.41
2022-08-07T02:36:43.980Z,100914.84
2022-08-07T02:39:43.738Z,100914.84
2022-08-07T02:42:10.066Z,100928.94
2022-08-07T02:44:48.327Z,100943.25
2022-08-07T02:47:23.531Z,100947.69
2022-08-07T02:50:00.060Z,100953.19
2022-08-07T02:52:39.335Z,100958.03
2022-08-07T02:55:28.784Z,100958.25
2022-08-07T02:58:07.086Z,100965.00
2022-08-07T03:00:41.045Z,100975.81
2022-08-07T03:03:22.911Z,100971.41
2022-08-07T03:05:56.870Z,100987.66
2022-08-07T03:08:29.417Z,100994.66
2022-08-07T03:11:01.754Z,100997.81
2022-08-07T03:13:49.700Z,101006.88
2022-08-07T03:16:23.035Z,101010.47
2022-08-07T03:19:02.367Z,101020.59
2022-08-07T03:21:34.450Z,101020.16
2022-08-07T03:24:19.966Z,101012.38
2022-08-07T03:27:00.865Z,101015.34
2022-08-07T03:29:52.312Z,101003.78
2022-08-07T03:32:33.930Z,101000.63
2022-08-07T03:35:18.069Z,101004.63
2022-08-07T03:37:55.325Z,101008.22
2022-08-07T03:40:36.582Z,101000.81
2022-08-07T03:43:14.371Z,101005.28
2022-08-07T03:45:48.720Z,101018.97
2022-08-07T03:48:22.844Z,101015.81
2022-08-07T03:50:57.791Z,101008.69
2022-08-07T03:54:01.930Z,101018.34
2022-08-07T03:56:33.451Z,101015.16
2022-08-07T03:59:09.831Z,101020.25
2022-08-07T04:01:46.563Z,101029.28
2022-08-07T04:04:19.849Z,101042.59
2022-08-07T04:06:54.051Z,101033.09
2022-08-07T04:09:25.415Z,101038.56
2022-08-07T04:12:24.615Z,101027.63
2022-08-07T04:14:56.645Z,101035.00
2022-08-07T04:18:56.976Z,101036.50
2022-08-07T04:20:14.545Z,101037.59
2022-08-07T04:22:53.677Z,101028.78
2022-08-07T04:25:24.175Z,101022.88
2022-08-07T04:28:01.178Z,101023.09
2022-08-07T04:30:36.034Z,101028.53
2022-08-07T04:33:25.998Z,101028.28
2022-08-07T04:35:56.680Z,101033.94
2022-08-07T04:38:29.574Z,101029.94
2022-08-07T04:40:59.664Z,101036.00
2022-08-07T04:44:11.963Z,101028.19
2022-08-07T04:47:08.784Z,101030.72
2022-08-07T04:50:03.830Z,101028.59
2022-08-07T04:52:51.113Z,101023.38
2022-08-07T04:58:16.568Z,101031.84
2022-08-07T04:58:49.761Z,101030.19
2022-08-07T05:01:21.119Z,101040.31
2022-08-07T05:04:17.762Z,101039.13
2022-08-07T05:07:20.390Z,101040.41
2022-08-07T05:10:04.635Z,101040.41
2022-08-07T05:12:52.892Z,101039.66
2022-08-07T05:15:27.411Z,101043.03
2022-08-07T05:18:09.308Z,101044.94
2022-08-07T05:20:45.256Z,101036.28
2022-08-07T05:23:19.821Z,101037.34
2022-08-07T05:26:15.579Z,101033.13
2022-08-07T05:28:53.409Z,101034.22
2022-08-07T05:31:34.545Z,101028.31
2022-08-07T05:34:10.989Z,101031.06
2022-08-07T05:36:44.501Z,101027.03
2022-08-07T05:40:07.040Z,101020.53
2022-08-07T05:42:33.700Z,101017.81
2022-08-07T05:45:25.940Z,101019.69
2022-08-07T05:48:01.762Z,101016.97
2022-08-07T05:50:39.542Z,101014.22
2022-08-07T05:54:09.680Z,100996.75
2022-08-07T05:56:06.080Z,100994.00
2022-08-07T05:58:41.825Z,100988.50
2022-08-07T06:01:23.334Z,100984.34
2022-08-07T06:04:01.102Z,100992.28
2022-08-07T06:06:37.279Z,100992.06
2022-08-07T06:09:09.697Z,100996.25
2022-08-07T06:11:44.190Z,101000.03
2022-08-07T06:14:20.986Z,100993.09
2022-08-07T06:16:57.121Z,100986.59
2022-08-07T06:19:48.014Z,100979.44
2022-08-07T06:22:24.068Z,100981.72
2022-08-07T06:25:16.939Z,100987.38
2022-08-07T06:28:01.410Z,100981.28
2022-08-07T06:30:35.326Z,100978.91
2022-08-07T06:33:15.613Z,100981.00
2022-08-07T06:36:06.250Z,100981.81
2022-08-07T06:38:35.770Z,100983.91
2022-08-07T06:41:12.837Z,100989.59
2022-08-07T06:43:59.259Z,100991.66
2022-08-07T06:46:35.218Z,100993.06
2022-08-07T06:49:05.090Z,100997.81
2022-08-07T06:51:49.401Z,100991.28
2022-08-07T21:21:04.636Z,100875.34
2022-08-07T21:23:50.247Z,100878.09
2022-08-07T21:26:34.693Z,100880.53
2022-08-07T21:29:19.512Z,100880.28
2022-08-07T21:32:43.558Z,100886.69
2022-08-07T21:35:34.713Z,100883.41
2022-08-07T21:38:27.932Z,100884.81
2022-08-07T21:41:38.137Z,100885.66
2022-08-07T21:44:30.625Z,100886.63
2022-08-07T21:47:31.952Z,100881.97
2022-08-07T21:50:08.535Z,100886.78
2022-08-07T21:53:18.470Z,100886.06
2022-08-07T21:56:51.949Z,100886.72
2022-08-07T22:00:05.188Z,100876.31
2022-08-07T22:02:49.066Z,100891.25
2022-08-07T22:05:44.419Z,100894.00
2022-08-07T22:08:18.541Z,100890.56
2022-08-07T22:10:57.310Z,100900.28
2022-08-07T22:13:52.102Z,100899.63
2022-08-07T22:16:42.807Z,100900.34
2022-08-07T22:19:36.972Z,100908.66
2022-08-07T22:22:27.597Z,100915.50
2022-08-07T22:25:12.196Z,100919.94
2022-08-07T22:28:08.055Z,100923.13
2022-08-07T22:31:59.291Z,100922.28
2022-08-07T22:34:35.847Z,100934.34
2022-08-07T22:37:09.273Z,100939.19
2022-08-07T22:40:18.996Z,100943.59
2022-08-07T22:42:52.296Z,100945.06
2022-08-07T22:46:04.619Z,100948.66
2022-08-07T22:49:02.083Z,100948.22
2022-08-07T22:52:36.686Z,100949.28
2022-08-07T22:55:30.161Z,100943.47
2022-08-07T22:58:17.475Z,100933.66
2022-08-07T23:01:08.110Z,100931.78
2022-08-07T23:03:57.929Z,100927.06
2022-08-07T23:06:51.295Z,100939.41
2022-08-07T23:10:00.681Z,100940.81
2022-08-07T23:12:46.761Z,100943.69
2022-08-07T23:16:06.452Z,100940.94
2022-08-07T23:19:14.016Z,100949.16
2022-08-07T23:21:58.148Z,100957.97
2022-08-07T23:28:21.412Z,100955.06
2022-08-07T23:31:11.606Z,100946.03
2022-08-07T23:34:36.479Z,100944.94
2022-08-07T23:37:19.225Z,100945.09
2022-08-07T23:40:07.547Z,100944.44
2022-08-07T23:43:16.941Z,100941.00
2022-08-07T23:46:10.668Z,100939.13
2022-08-07T23:49:08.705Z,100940.59
2022-08-07T23:53:01.866Z,100934.03
2022-08-07T23:54:58.251Z,100936.84
2022-08-07T23:58:06.660Z,100930.13
